Briefing drone pour Tain-l'hermitage

Rechercher une autre localisation

Conditions de vol :


Nous sommes le : Vendredi 22 octobre 2021
Il est 12:41 UTC (14:41 LT)

Lever de soleil : 05:39 UTC (07:39 LT)
Coucher de soleil : 17:10 UTC (19:10 LT)

Météo

L'essentiel des conditions de vol

VIGILANCE MÉTÉO FRANCE - Drôme (26)
Pas de vigilances particulieres
CARTES DES FRONTS
METAR de LFLU
LFLU 221230Z AUTO 36019KT 9999 FEW044 SCT062 17/06 Q1020

Date d'émission: 22/10/2021
Heure d'émission: 12:30 UTC
Vent: 360° pour 19 KT (35 km/h)
Visibilité horizontale: > 10 km
Plafond :
- Peu de nuages à 4400ft (1341m)
- Nuages épars à 6200ft (1890m)
Température: 17 °C
Point de rosée: 6 °C
Humidité: 48%
Pression (QNH): 1020 hPa
Prévision 24h pour Valence (10 km)
Vent : 9° pour 6 KT (22 km/h)
Temperature Maxi: 9 °C
Temperature Min: 9 °C
Humidité : 65%
Condition : Ciel dégagé



Warning: count(): Parameter must be an array or an object that implements Countable in /homepages/6/d509196549/htdocs/droneoxygene/briefing.php on line 743
WEBCAM POUR TAIN-L'HERMITAGE

Réglementation

Voler en sécurité

CARTES AERONAUTIQUE 1/500.000
CARTES VAC (LFLU)
SUP AIP




Chargement des AIP...
NOTAM (TAIN-L'HERMITAGE + Terrain à proximité / FIR )




Chargement des NOTAMS...
CONTACT PREFECTURE 26
Drôme (26) : ddt-satem@drome.gouv.fr


Avertissement : Les données mises à disposition sont indicatives. Oxygène Drone ne pourra être tenu responsable de dégâts causés aux biens et aux personnes.